createdAt,value
2018-04-29T00:02:24.015Z,19.60
2018-04-29T00:04:53.132Z,19.23
2018-04-29T00:07:22.274Z,18.00
2018-04-29T00:09:51.462Z,17.70
2018-04-29T00:12:20.751Z,16.70
2018-04-29T00:14:49.890Z,15.90
2018-04-29T00:17:19.032Z,14.33
2018-04-29T00:19:48.188Z,12.33
2018-04-29T00:22:17.323Z,13.10
2018-04-29T00:24:46.471Z,12.33
2018-04-29T00:27:15.607Z,10.80
2018-04-29T00:29:44.724Z,11.87
2018-04-29T00:32:13.857Z,12.80
2018-04-29T00:34:43.027Z,12.00
2018-04-29T00:37:12.137Z,10.20
2018-04-29T00:39:41.272Z,11.80
2018-04-29T00:42:10.449Z,13.60
2018-04-29T00:44:39.587Z,13.13
2018-04-29T00:47:08.729Z,13.13
2018-04-29T00:49:37.875Z,12.30
2018-04-29T00:52:07.063Z,12.80
2018-04-29T00:54:36.192Z,12.57
2018-04-29T00:57:05.316Z,13.60
2018-04-29T00:59:34.455Z,11.93
2018-04-29T01:02:03.606Z,10.60
2018-04-29T01:04:32.730Z,13.77
2018-04-29T01:07:01.922Z,13.80
2018-04-29T01:09:31.031Z,12.10
2018-04-29T01:12:00.184Z,12.27
2018-04-29T01:14:29.352Z,11.93
2018-04-29T01:16:58.496Z,10.80
2018-04-29T01:19:27.616Z,11.07
2018-04-29T01:21:56.772Z,13.43
2018-04-29T01:24:25.904Z,13.93
2018-04-29T01:26:55.033Z,13.17
2018-04-29T01:29:24.210Z,13.17
2018-04-29T01:31:53.376Z,13.20
2018-04-29T01:34:22.497Z,13.30
2018-04-29T01:36:51.657Z,12.17
2018-04-29T01:39:20.793Z,13.50
2018-04-29T01:41:49.909Z,11.80
2018-04-29T01:44:19.062Z,15.90
2018-04-29T01:46:48.239Z,14.70
2018-04-29T01:49:17.344Z,13.13
2018-04-29T01:51:46.501Z,14.00
2018-04-29T01:54:15.636Z,13.93
2018-04-29T01:56:44.796Z,12.07
2018-04-29T01:59:13.940Z,10.63
2018-04-29T02:01:43.084Z,19.77
2018-04-29T02:04:12.259Z,14.80
2018-04-29T02:06:41.384Z,15.90
2018-04-29T02:09:10.580Z,16.10
2018-04-29T02:11:39.764Z,16.40
2018-04-29T02:14:08.912Z,14.60
2018-04-29T02:16:38.105Z,13.00
2018-04-29T02:19:07.286Z,14.83
2018-04-29T02:21:36.404Z,12.10
2018-04-29T02:24:05.567Z,11.03
2018-04-29T02:26:34.703Z,10.63
2018-04-29T02:29:03.843Z,11.50
2018-04-29T02:31:33.008Z,11.30
2018-04-29T02:34:02.473Z,10.20
2018-04-29T02:36:31.616Z,10.93
2018-04-29T02:39:00.758Z,12.80
2018-04-29T02:41:29.919Z,13.97
2018-04-29T02:43:59.081Z,14.47
2018-04-29T02:46:28.259Z,13.47
2018-04-29T02:48:57.388Z,16.00
2018-04-29T02:51:26.502Z,14.93
2018-04-29T02:53:56.212Z,15.47
2018-04-29T02:56:25.351Z,14.97
2018-04-29T02:58:54.491Z,14.47
2018-04-29T03:01:23.654Z,13.57
2018-04-29T03:03:52.808Z,13.50
2018-04-29T03:06:21.951Z,11.73
2018-04-29T03:08:51.088Z,11.00
2018-04-29T03:11:20.245Z,10.07
2018-04-29T03:13:49.384Z,10.70
2018-04-29T03:16:18.565Z,10.10
2018-04-29T03:18:47.689Z,10.60
2018-04-29T03:21:16.858Z,10.60
2018-04-29T03:23:46.006Z,10.17
2018-04-29T03:26:15.144Z,11.33
2018-04-29T03:28:44.308Z,10.63
2018-04-29T03:31:13.422Z,10.70
2018-04-29T03:33:42.579Z,11.30
2018-04-29T03:36:11.711Z,14.70
2018-04-29T03:38:40.839Z,15.80
2018-04-29T03:41:10.700Z,16.73
2018-04-29T03:43:39.837Z,19.77
2018-04-29T03:46:08.972Z,24.53
2018-04-29T03:48:38.118Z,22.87
2018-04-29T03:51:07.265Z,22.80
2018-04-29T03:53:36.392Z,20.70
2018-04-29T03:56:05.787Z,19.83
2018-04-29T03:58:40.594Z,16.67
2018-04-29T04:01:15.800Z,16.57
2018-04-29T04:03:49.655Z,13.87
2018-04-29T04:06:18.793Z,12.23
2018-04-29T04:08:47.924Z,13.90
2018-04-29T04:11:17.069Z,14.83
2018-04-29T04:13:46.220Z,14.10
2018-04-29T04:16:15.428Z,14.40
2018-04-29T04:18:44.548Z,11.80
2018-04-29T04:21:13.673Z,15.10
2018-04-29T04:23:42.916Z,13.30
2018-04-29T04:26:11.992Z,14.20
2018-04-29T04:28:41.127Z,13.23
2018-04-29T04:31:10.250Z,11.23
2018-04-29T04:33:39.368Z,10.70
2018-04-29T04:36:08.508Z,11.87
2018-04-29T04:38:37.617Z,12.30
2018-04-29T04:41:06.765Z,13.23
2018-04-29T04:43:35.908Z,13.20
2018-04-29T04:46:05.056Z,13.10
2018-04-29T04:48:34.231Z,10.40
2018-04-29T04:51:03.364Z,11.27
2018-04-29T04:53:32.526Z,11.20
2018-04-29T04:56:01.663Z,10.70
2018-04-29T04:58:30.780Z,10.53
2018-04-29T05:00:59.960Z,9.50
2018-04-29T05:03:29.083Z,10.40
2018-04-29T05:05:58.229Z,10.20
2018-04-29T05:08:27.377Z,9.70
2018-04-29T05:10:56.523Z,9.47
2018-04-29T05:13:25.725Z,10.00
2018-04-29T05:15:54.877Z,10.10
2018-04-29T05:18:23.999Z,9.13
2018-04-29T05:20:53.137Z,10.87
2018-04-29T05:23:22.301Z,9.70
2018-04-29T05:25:51.415Z,9.93
2018-04-29T05:28:20.577Z,10.00
2018-04-29T05:30:49.753Z,9.23
2018-04-29T05:33:18.954Z,9.70
2018-04-29T05:35:48.076Z,8.83
2018-04-29T05:38:17.225Z,10.00
2018-04-29T05:40:46.385Z,9.50
2018-04-29T05:43:15.650Z,9.37
2018-04-29T05:45:44.834Z,9.90
2018-04-29T05:48:14.041Z,9.70
2018-04-29T05:50:43.860Z,9.37
2018-04-29T05:53:13.152Z,9.57
2018-04-29T05:55:43.253Z,8.53
2018-04-29T06:00:44.143Z,8.90
2018-04-29T06:03:13.296Z,9.80
2018-04-29T06:05:42.850Z,9.30
2018-04-29T06:08:11.974Z,9.10
2018-04-29T06:10:41.112Z,9.63
2018-04-29T06:13:10.252Z,8.80
2018-04-29T06:15:39.381Z,8.80
2018-04-29T06:18:08.558Z,9.70
2018-04-29T06:20:37.693Z,9.33
2018-04-29T06:23:06.876Z,8.33
2018-04-29T06:25:36.020Z,9.17
2018-04-29T06:28:05.128Z,8.80
2018-04-29T06:30:34.286Z,10.33
2018-04-29T06:33:03.424Z,9.60
2018-04-29T06:35:32.537Z,8.53
2018-04-29T06:38:01.726Z,14.07
2018-04-29T06:40:30.868Z,8.23
2018-04-29T06:43:00.060Z,9.90
2018-04-29T06:45:29.948Z,8.90
2018-04-29T06:47:59.107Z,8.20
2018-04-29T06:50:28.238Z,7.63
2018-04-29T06:52:57.410Z,13.60
2018-04-29T06:55:26.542Z,8.10
2018-04-29T06:57:55.648Z,7.80
2018-04-29T07:00:24.804Z,8.10
2018-04-29T07:02:53.979Z,11.43
2018-04-29T07:05:23.124Z,7.80
2018-04-29T07:07:52.308Z,7.80
2018-04-29T07:10:21.443Z,7.53
2018-04-29T07:12:50.587Z,8.13
2018-04-29T07:15:19.710Z,10.90
2018-04-29T07:17:48.848Z,7.97
2018-04-29T07:20:18.015Z,8.17
2018-04-29T07:22:47.149Z,7.90
2018-04-29T07:25:16.284Z,7.80
2018-04-29T07:27:45.412Z,7.63
2018-04-29T07:30:14.591Z,11.17
2018-04-29T07:32:43.699Z,12.67
2018-04-29T07:35:12.827Z,8.37
2018-04-29T07:37:42.115Z,19.60
2018-04-29T07:40:11.288Z,10.57
2018-04-29T07:42:40.360Z,14.00
2018-04-29T07:45:09.493Z,8.40
2018-04-29T07:47:38.616Z,8.53
2018-04-29T07:50:07.792Z,7.47
2018-04-29T07:52:37.008Z,8.13
2018-04-29T07:55:06.067Z,7.73
2018-04-29T07:57:35.182Z,17.30
2018-04-29T08:00:04.298Z,70.23
2018-04-29T08:02:33.441Z,22.23
2018-04-29T08:05:02.596Z,21.03
2018-04-29T08:07:31.739Z,9.47
2018-04-29T08:10:00.914Z,8.53
2018-04-29T08:12:30.102Z,7.53
2018-04-29T08:14:59.235Z,7.77
2018-04-29T08:17:28.352Z,6.90
2018-04-29T08:19:57.491Z,14.73
2018-04-29T08:25:00.566Z,7.47
2018-04-29T08:27:29.702Z,8.97
2018-04-29T08:29:58.849Z,7.43
2018-04-29T08:32:28.022Z,7.37
2018-04-29T08:34:57.186Z,7.50
2018-04-29T08:37:26.327Z,8.30
2018-04-29T08:39:55.441Z,7.57
2018-04-29T08:42:24.587Z,7.53
2018-04-29T08:44:53.714Z,7.73
2018-04-29T08:47:23.011Z,9.30
2018-04-29T08:49:52.172Z,6.90
2018-04-29T08:52:21.284Z,7.50
2018-04-29T08:54:50.970Z,6.70
2018-04-29T08:57:20.099Z,7.60
2018-04-29T08:59:49.224Z,7.00
2018-04-29T09:02:18.393Z,6.80
2018-04-29T09:04:47.529Z,7.37
2018-04-29T09:07:16.692Z,7.43
2018-04-29T09:09:46.543Z,7.20
2018-04-29T09:12:15.687Z,8.30
2018-04-29T09:14:44.848Z,7.40
2018-04-29T09:17:13.984Z,7.10
2018-04-29T09:19:43.127Z,7.37
2018-04-29T09:22:12.312Z,7.10
2018-04-29T09:24:41.449Z,7.10
2018-04-29T09:27:10.567Z,7.40
2018-04-29T09:29:39.731Z,7.20
2018-04-29T09:32:08.874Z,7.43
2018-04-29T09:34:38.009Z,6.97
2018-04-29T09:37:07.158Z,6.70
2018-04-29T09:39:36.274Z,6.80
2018-04-29T09:42:05.412Z,7.27
2018-04-29T09:44:34.541Z,7.07
2018-04-29T09:47:03.686Z,6.43
2018-04-29T09:49:32.861Z,7.23
2018-04-29T09:52:01.965Z,6.50
2018-04-29T09:54:31.161Z,6.63
2018-04-29T09:57:00.295Z,6.43
2018-04-29T09:59:29.415Z,6.27
2018-04-29T10:02:02.608Z,6.93
2018-04-29T10:04:31.764Z,7.00
2018-04-29T10:07:00.888Z,6.47
2018-04-29T10:09:30.099Z,6.40
2018-04-29T10:11:59.144Z,7.00
2018-04-29T10:14:28.277Z,6.53
2018-04-29T10:16:57.416Z,6.70
2018-04-29T10:19:26.529Z,7.10
2018-04-29T10:21:55.672Z,6.10
2018-04-29T10:24:24.842Z,6.97
2018-04-29T10:26:53.947Z,6.63
2018-04-29T10:29:23.067Z,6.63
2018-04-29T10:31:52.228Z,6.17
2018-04-29T10:34:21.370Z,6.60
2018-04-29T10:36:50.480Z,6.53
2018-04-29T10:39:19.636Z,6.53
2018-04-29T10:41:48.769Z,5.87
2018-04-29T10:44:17.912Z,6.17
2018-04-29T10:46:47.075Z,6.13
2018-04-29T10:49:16.528Z,6.37
2018-04-29T10:51:45.644Z,6.00
2018-04-29T10:54:14.780Z,5.30
2018-04-29T10:56:43.947Z,5.77
2018-04-29T10:59:13.340Z,5.50
2018-04-29T11:01:42.484Z,5.57
2018-04-29T11:04:11.615Z,5.70
2018-04-29T11:06:40.776Z,5.80
2018-04-29T11:09:09.910Z,5.10
2018-04-29T11:11:39.094Z,5.70
2018-04-29T11:14:08.232Z,5.20
2018-04-29T11:16:37.410Z,5.13
2018-04-29T11:19:06.552Z,5.33
2018-04-29T11:21:35.680Z,5.20
2018-04-29T11:24:04.812Z,6.13
2018-04-29T11:26:33.957Z,5.07
2018-04-29T11:29:03.082Z,5.47
2018-04-29T11:31:32.212Z,5.33
2018-04-29T11:34:01.360Z,5.73
2018-04-29T11:36:30.509Z,6.00
2018-04-29T11:38:59.665Z,5.23
2018-04-29T11:41:28.784Z,5.20
2018-04-29T11:43:57.913Z,5.70
2018-04-29T11:46:27.055Z,5.17
2018-04-29T11:48:56.184Z,5.40
2018-04-29T11:51:25.294Z,5.60
2018-04-29T11:53:54.449Z,5.30
2018-04-29T11:56:23.596Z,6.10
2018-04-29T11:58:52.704Z,5.53
2018-04-29T12:01:21.873Z,4.93
2018-04-29T12:03:51.603Z,4.70
2018-04-29T12:06:20.740Z,4.57
2018-04-29T12:08:49.883Z,5.07
2018-04-29T12:11:19.020Z,4.60
2018-04-29T12:13:48.148Z,5.00
2018-04-29T12:16:17.301Z,5.50
2018-04-29T12:18:46.463Z,5.60
2018-04-29T12:21:15.567Z,5.73
2018-04-29T12:23:44.735Z,5.60
2018-04-29T12:26:13.856Z,5.80
2018-04-29T12:28:42.968Z,6.07
2018-04-29T12:31:12.118Z,5.40
2018-04-29T12:33:41.331Z,5.87
2018-04-29T12:36:10.428Z,5.93
2018-04-29T12:38:39.584Z,5.70
2018-04-29T12:41:08.699Z,6.20
2018-04-29T12:43:37.832Z,5.77
2018-04-29T12:46:07.008Z,5.27
2018-04-29T12:48:36.151Z,5.50
2018-04-29T12:51:05.268Z,6.20
2018-04-29T12:53:34.640Z,6.50
2018-04-29T12:56:03.760Z,5.83
2018-04-29T12:58:32.875Z,5.40
2018-04-29T13:01:02.016Z,5.87
2018-04-29T13:03:31.157Z,5.27
2018-04-29T13:06:00.375Z,4.90
2018-04-29T13:08:29.526Z,5.20
2018-04-29T13:10:58.664Z,6.00
2018-04-29T13:13:27.824Z,4.80
2018-04-29T13:15:56.943Z,5.47
2018-04-29T13:18:26.088Z,4.77
2018-04-29T13:20:55.250Z,4.97
2018-04-29T13:23:24.408Z,4.60
2018-04-29T13:25:53.549Z,4.80
2018-04-29T13:28:22.680Z,5.17
2018-04-29T13:30:51.819Z,5.00
2018-04-29T13:33:20.951Z,5.37
2018-04-29T13:35:50.160Z,5.43
2018-04-29T13:38:19.211Z,5.77
2018-04-29T13:40:48.363Z,5.80
2018-04-29T13:43:17.481Z,5.40
2018-04-29T13:45:46.649Z,6.80
2018-04-29T13:48:15.842Z,5.73
2018-04-29T13:50:44.971Z,6.23
2018-04-29T13:53:14.102Z,5.07
2018-04-29T13:55:43.263Z,5.40
2018-04-29T13:58:12.377Z,5.80
2018-04-29T14:00:41.577Z,6.07
2018-04-29T14:03:10.707Z,5.30
2018-04-29T14:05:39.828Z,5.47
2018-04-29T14:08:08.947Z,5.67
2018-04-29T14:10:38.112Z,5.90
2018-04-29T14:13:07.271Z,6.13
2018-04-29T14:15:36.410Z,5.43
2018-04-29T14:18:05.536Z,6.47
2018-04-29T14:20:34.685Z,5.80
2018-04-29T14:23:03.820Z,7.87
2018-04-29T14:25:32.981Z,5.57
2018-04-29T14:28:02.105Z,6.20
2018-04-29T14:30:31.261Z,5.97
2018-04-29T14:33:00.367Z,6.10
2018-04-29T14:35:29.482Z,6.43
2018-04-29T14:37:58.635Z,5.60
2018-04-29T14:40:27.771Z,6.00
2018-04-29T14:42:56.889Z,6.40
2018-04-29T14:45:26.072Z,6.80
2018-04-29T14:47:55.201Z,6.27
2018-04-29T14:50:24.355Z,5.40
2018-04-29T14:52:53.462Z,6.67
2018-04-29T14:55:22.616Z,5.70
2018-04-29T14:57:51.810Z,6.10
2018-04-29T15:00:20.963Z,6.00
2018-04-29T15:02:50.108Z,5.67
2018-04-29T15:05:19.215Z,6.23
2018-04-29T15:07:48.380Z,5.60
2018-04-29T15:10:17.500Z,5.87
2018-04-29T15:12:46.632Z,5.90
2018-04-29T15:15:15.783Z,6.20
2018-04-29T15:17:44.917Z,6.20
2018-04-29T15:20:14.067Z,6.50
2018-04-29T15:22:43.241Z,6.33
2018-04-29T15:25:12.436Z,6.20
2018-04-29T15:27:41.552Z,5.70
2018-04-29T15:30:10.713Z,6.60
2018-04-29T15:32:39.840Z,6.00
2018-04-29T15:35:08.973Z,5.90
2018-04-29T15:37:38.128Z,5.63
2018-04-29T15:40:07.285Z,6.50
2018-04-29T15:42:36.464Z,6.10
2018-04-29T15:45:05.575Z,7.60
2018-04-29T15:47:34.744Z,6.50
2018-04-29T15:50:03.894Z,6.57
2018-04-29T15:52:32.996Z,6.10
2018-04-29T15:55:02.122Z,6.00
2018-04-29T15:57:31.285Z,6.03
2018-04-29T16:00:00.404Z,6.20
2018-04-29T16:02:29.541Z,6.57
2018-04-29T16:04:58.724Z,6.70
2018-04-29T16:07:27.880Z,6.20
2018-04-29T16:09:56.983Z,6.70
2018-04-29T16:12:26.109Z,8.90
2018-04-29T16:14:55.277Z,7.03
2018-04-29T16:17:24.481Z,6.60
2018-04-29T16:19:53.641Z,6.43
2018-04-29T16:22:22.773Z,15.00
2018-04-29T16:24:51.880Z,6.53
2018-04-29T16:27:21.040Z,6.70
2018-04-29T16:29:50.162Z,6.80
2018-04-29T16:32:19.295Z,6.60
2018-04-29T16:34:48.492Z,6.60
2018-04-29T16:37:17.682Z,5.93
2018-04-29T16:39:46.768Z,6.33
2018-04-29T16:42:15.953Z,6.03
2018-04-29T16:44:45.090Z,6.50
2018-04-29T16:47:14.211Z,6.47
2018-04-29T16:49:43.363Z,7.40
2018-04-29T16:52:12.481Z,7.70
2018-04-29T16:54:41.592Z,6.60
2018-04-29T16:57:10.769Z,7.40
2018-04-29T16:59:39.895Z,7.83
2018-04-29T17:02:09.043Z,6.83
2018-04-29T17:04:38.204Z,6.90
2018-04-29T17:07:07.346Z,6.77
2018-04-29T17:09:36.478Z,7.50
2018-04-29T17:12:05.633Z,7.20
2018-04-29T17:14:34.770Z,7.10
2018-04-29T17:17:03.991Z,7.23
2018-04-29T17:19:33.076Z,7.57
2018-04-29T17:22:02.196Z,7.07
2018-04-29T17:24:31.377Z,6.90
2018-04-29T17:27:00.492Z,7.60
2018-04-29T17:29:29.645Z,6.70
2018-04-29T17:31:58.776Z,7.60
2018-04-29T17:34:27.903Z,7.20
2018-04-29T17:36:57.087Z,7.73
2018-04-29T17:39:26.265Z,7.57
2018-04-29T17:41:55.408Z,7.23
2018-04-29T17:44:24.545Z,7.20
2018-04-29T17:46:53.666Z,7.73
2018-04-29T17:49:22.825Z,7.80
2018-04-29T17:51:51.953Z,7.90
2018-04-29T17:54:21.469Z,8.40
2018-04-29T17:56:50.636Z,8.10
2018-04-29T17:59:19.938Z,7.80
2018-04-29T18:01:49.041Z,7.03
2018-04-29T18:04:18.188Z,7.83
2018-04-29T18:06:47.373Z,7.30
2018-04-29T18:09:16.561Z,7.80
2018-04-29T18:11:45.671Z,8.30
2018-04-29T18:14:14.840Z,7.50
2018-04-29T18:16:43.961Z,8.07
2018-04-29T18:19:13.092Z,7.83
2018-04-29T18:21:42.249Z,7.80
2018-04-29T18:24:11.359Z,8.00
2018-04-29T18:26:40.485Z,8.00
2018-04-29T18:29:09.620Z,8.50
2018-04-29T18:31:38.755Z,8.10
2018-04-29T18:34:07.888Z,8.50
2018-04-29T18:36:37.032Z,8.63
2018-04-29T18:39:06.416Z,8.70
2018-04-29T18:41:35.477Z,9.67
2018-04-29T18:44:04.617Z,8.20
2018-04-29T18:46:33.786Z,8.03
2018-04-29T18:49:02.922Z,8.87
2018-04-29T18:51:32.139Z,8.20
2018-04-29T18:54:01.239Z,8.43
2018-04-29T18:56:30.380Z,7.97
2018-04-29T18:58:59.538Z,8.00
2018-04-29T19:01:28.668Z,8.10
2018-04-29T19:03:57.785Z,7.77
2018-04-29T19:06:26.936Z,7.80
2018-04-29T19:08:56.077Z,8.40
2018-04-29T19:11:25.304Z,8.97
2018-04-29T19:13:54.470Z,9.13
2018-04-29T19:16:23.576Z,8.37
2018-04-29T19:18:52.727Z,7.93
2018-04-29T19:21:21.888Z,7.77
2018-04-29T19:23:51.001Z,8.57
2018-04-29T19:26:20.117Z,8.27
2018-04-29T19:28:49.285Z,7.80
2018-04-29T19:31:18.428Z,8.67
2018-04-29T19:33:47.525Z,8.27
2018-04-29T19:36:16.652Z,7.50
2018-04-29T19:38:45.787Z,9.10
2018-04-29T19:41:14.907Z,8.27
2018-04-29T19:43:44.098Z,8.47
2018-04-29T19:46:13.224Z,9.37
2018-04-29T19:48:42.413Z,8.27
2018-04-29T19:51:11.529Z,9.90
2018-04-29T19:53:40.683Z,8.73
2018-04-29T19:56:09.817Z,8.60
2018-04-29T19:58:38.949Z,8.23
2018-04-29T20:01:08.093Z,8.70
2018-04-29T20:03:37.262Z,8.43
2018-04-29T20:06:06.417Z,9.03
2018-04-29T20:08:35.560Z,8.43
2018-04-29T20:11:04.708Z,8.80
2018-04-29T20:13:33.827Z,8.47
2018-04-29T20:16:02.976Z,9.27
2018-04-29T20:18:32.259Z,9.50
2018-04-29T20:21:01.306Z,9.37
2018-04-29T20:23:31.236Z,8.80
2018-04-29T20:26:00.386Z,8.53
2018-04-29T20:28:29.518Z,8.50
2018-04-29T20:30:58.624Z,9.00
2018-04-29T20:33:27.778Z,10.30
2018-04-29T20:35:57.404Z,9.17
2018-04-29T20:38:26.556Z,8.47
2018-04-29T20:40:55.686Z,8.40
2018-04-29T20:43:24.823Z,9.07
2018-04-29T20:45:53.960Z,8.73
2018-04-29T20:48:23.132Z,9.30
2018-04-29T20:50:52.321Z,9.30
2018-04-29T20:53:21.433Z,8.30
2018-04-29T20:55:50.566Z,9.43
2018-04-29T20:58:19.733Z,12.00
2018-04-29T21:00:48.888Z,8.77
2018-04-29T21:03:18.043Z,9.10
2018-04-29T21:05:47.180Z,9.00
2018-04-29T21:08:16.309Z,9.50
2018-04-29T21:10:45.481Z,8.40
2018-04-29T21:13:14.592Z,9.60
2018-04-29T21:15:43.745Z,9.10
2018-04-29T21:18:12.904Z,9.27
2018-04-29T21:20:42.047Z,9.30
2018-04-29T21:23:11.180Z,9.63
2018-04-29T21:25:40.349Z,9.20
2018-04-29T21:28:09.499Z,9.93
2018-04-29T21:30:38.612Z,9.30
2018-04-29T21:33:07.744Z,9.10
2018-04-29T21:35:36.891Z,10.23
2018-04-29T21:38:06.082Z,9.30
2018-04-29T21:40:35.203Z,9.17
2018-04-29T21:43:04.321Z,10.90
2018-04-29T21:45:33.441Z,9.57
2018-04-29T21:48:02.637Z,11.10
2018-04-29T21:50:31.810Z,9.30
2018-04-29T21:53:01.283Z,9.10
2018-04-29T21:55:30.631Z,9.10
2018-04-29T21:57:59.747Z,9.23
2018-04-29T22:00:28.883Z,9.47
2018-04-29T22:02:58.050Z,9.17
2018-04-29T22:05:27.174Z,9.60
2018-04-29T22:07:56.285Z,9.50
2018-04-29T22:10:25.493Z,9.03
2018-04-29T22:12:54.656Z,10.20
2018-04-29T22:15:23.808Z,11.17
2018-04-29T22:17:52.924Z,10.77
2018-04-29T22:20:22.135Z,10.80
2018-04-29T22:22:51.284Z,10.33
2018-04-29T22:25:20.399Z,9.70
2018-04-29T22:27:49.524Z,11.07
2018-04-29T22:30:18.636Z,8.43
2018-04-29T22:32:47.756Z,8.93
2018-04-29T22:35:16.929Z,9.10
2018-04-29T22:37:46.066Z,9.10
2018-04-29T22:40:15.195Z,8.90
2018-04-29T22:42:44.358Z,8.57
2018-04-29T22:45:13.511Z,8.20
2018-04-29T22:47:42.645Z,8.03
2018-04-29T22:50:11.812Z,8.70
2018-04-29T22:52:40.953Z,9.30
2018-04-29T22:55:10.088Z,9.20
2018-04-29T22:57:39.697Z,8.63
2018-04-29T23:00:08.826Z,9.33
2018-04-29T23:02:37.953Z,8.57
2018-04-29T23:05:07.131Z,8.50
2018-04-29T23:07:36.260Z,8.20
2018-04-29T23:10:05.383Z,7.90
2018-04-29T23:12:34.540Z,8.53
2018-04-29T23:15:03.656Z,8.30
2018-04-29T23:17:32.761Z,8.87
2018-04-29T23:20:01.905Z,9.03
2018-04-29T23:22:31.072Z,8.20
2018-04-29T23:25:00.209Z,9.80
2018-04-29T23:27:29.384Z,9.83
2018-04-29T23:29:58.524Z,9.63
2018-04-29T23:32:27.725Z,9.53
2018-04-29T23:34:56.876Z,10.40
2018-04-29T23:37:26.053Z,10.10
2018-04-29T23:39:55.165Z,8.93
2018-04-29T23:42:24.306Z,9.53
2018-04-29T23:44:53.458Z,10.20
2018-04-29T23:47:22.617Z,9.90
2018-04-29T23:49:51.768Z,9.80
2018-04-29T23:52:20.917Z,9.60
2018-04-29T23:54:50.031Z,9.30
2018-04-29T23:57:19.164Z,8.90
2018-04-29T23:59:48.332Z,10.10
